createdAt,value
2022-09-12T00:01:19.563Z,97894.66
2022-09-12T00:03:48.303Z,97898.38
2022-09-12T00:06:29.754Z,97904.91
2022-09-12T00:09:09.096Z,97901.00
2022-09-12T00:11:39.024Z,97905.06
2022-09-12T00:14:08.769Z,97905.97
2022-09-12T00:16:37.516Z,97911.22
2022-09-12T00:19:06.399Z,97901.84
2022-09-12T00:21:36.612Z,97902.81
2022-09-12T00:24:04.602Z,97904.91
2022-09-12T00:26:32.550Z,97907.88
2022-09-12T00:29:00.042Z,97905.28
2022-09-12T00:31:28.216Z,97902.97
2022-09-12T00:34:00.753Z,97906.16
2022-09-12T00:36:30.419Z,97908.97
2022-09-12T00:38:58.644Z,97913.94
2022-09-12T00:41:32.554Z,97918.69
2022-09-12T00:44:24.560Z,97914.41
2022-09-12T00:47:16.243Z,97912.47
2022-09-12T00:49:54.986Z,97905.44
2022-09-12T00:52:46.266Z,97904.84
2022-09-12T00:55:27.895Z,97906.25
2022-09-12T00:58:05.073Z,97904.84
2022-09-12T01:00:32.826Z,97909.53
2022-09-12T01:03:09.209Z,97901.09
2022-09-12T01:05:45.392Z,97909.22
2022-09-12T01:08:12.856Z,97903.13
2022-09-12T01:10:42.637Z,97905.53
2022-09-12T01:13:11.364Z,97904.78
2022-09-12T01:15:40.433Z,97903.72
2022-09-12T01:18:25.055Z,97906.72
2022-09-12T01:21:17.037Z,97908.94
2022-09-12T01:24:02.899Z,97904.94
2022-09-12T01:27:04.120Z,97915.06
2022-09-12T01:30:21.200Z,97907.19
2022-09-12T01:33:37.049Z,97907.59
2022-09-12T01:36:30.604Z,97904.28
2022-09-12T01:39:08.610Z,97899.44
2022-09-12T01:42:10.347Z,97906.31
2022-09-12T01:44:56.112Z,97912.91
2022-09-12T01:47:39.769Z,97908.84
2022-09-12T01:50:21.708Z,97911.47
2022-09-12T01:53:14.849Z,97913.41
2022-09-12T01:55:51.504Z,97908.84
2022-09-12T01:58:40.579Z,97912.84
2022-09-12T02:01:20.932Z,97918.38
2022-09-12T02:04:15.793Z,97909.75
2022-09-12T02:07:06.849Z,97918.22
2022-09-12T02:09:56.645Z,97921.69
2022-09-12T02:12:35.160Z,97918.22
2022-09-12T02:15:08.657Z,97922.50
2022-09-12T02:17:47.286Z,97923.47
2022-09-12T02:20:44.015Z,97928.91
2022-09-12T02:23:15.738Z,97917.19
2022-09-12T02:25:48.935Z,97916.91
2022-09-12T02:28:31.567Z,97917.31
2022-09-12T02:31:47.730Z,97911.94
2022-09-12T02:34:33.354Z,97915.00
2022-09-12T02:37:29.572Z,97910.88
2022-09-12T02:39:58.110Z,97914.47
2022-09-12T02:42:26.317Z,97911.72
2022-09-12T02:44:56.512Z,97913.63
2022-09-12T02:47:42.243Z,97909.50
2022-09-12T02:50:10.656Z,97910.69
2022-09-12T02:52:38.852Z,97916.81
2022-09-12T02:55:07.836Z,97909.75
2022-09-12T02:57:35.330Z,97911.97
2022-09-12T03:00:03.168Z,97911.72
2022-09-12T03:03:09.640Z,97921.13
2022-09-12T03:05:59.885Z,97924.31
2022-09-12T03:08:46.568Z,97929.28
2022-09-12T03:11:38.056Z,97928.59
2022-09-12T03:14:43.776Z,97924.72
2022-09-12T03:17:26.193Z,97921.38
2022-09-12T03:20:09.669Z,97925.69
2022-09-12T03:22:59.158Z,97921.38
2022-09-12T03:25:49.098Z,97920.00
2022-09-12T03:28:20.186Z,97923.91
2022-09-12T03:30:51.557Z,97924.00
2022-09-12T03:33:24.992Z,97927.34
2022-09-12T03:35:54.801Z,97922.22
2022-09-12T03:38:22.170Z,97932.97
2022-09-12T03:40:54.064Z,97935.59
2022-09-12T03:43:22.265Z,97929.66
2022-09-12T03:45:53.488Z,97931.97
2022-09-12T03:48:21.234Z,97928.50
2022-09-12T03:50:48.421Z,97931.53
2022-09-12T03:53:17.420Z,97940.63
2022-09-12T03:55:45.648Z,97932.19
2022-09-12T03:58:12.920Z,97939.47
2022-09-12T04:00:41.040Z,97947.47
2022-09-12T04:03:09.294Z,97943.31
2022-09-12T04:05:36.859Z,97953.94
2022-09-12T04:08:04.262Z,97949.75
2022-09-12T04:10:32.392Z,97951.63
2022-09-12T04:12:59.606Z,97952.00
2022-09-12T04:15:27.024Z,97943.31
2022-09-12T04:17:54.282Z,97943.19
2022-09-12T04:20:21.508Z,97952.00
2022-09-12T04:22:48.887Z,97952.00
2022-09-12T04:25:17.354Z,97957.38
2022-09-12T04:27:44.586Z,97953.34
2022-09-12T04:30:12.662Z,97955.25
2022-09-12T04:32:41.081Z,97950.25
2022-09-12T04:35:08.519Z,97953.34
2022-09-12T04:37:36.037Z,97960.84
2022-09-12T04:40:03.596Z,97955.91
2022-09-12T04:42:30.904Z,97958.88
2022-09-12T04:44:58.412Z,97962.50
2022-09-12T04:47:25.605Z,97962.72
2022-09-12T04:49:52.787Z,97965.66
2022-09-12T04:52:20.384Z,97964.44
2022-09-12T04:54:47.617Z,97972.75
2022-09-12T04:57:14.822Z,97973.47
2022-09-12T04:59:42.666Z,97976.31
2022-09-12T05:02:09.893Z,97972.44
2022-09-12T05:04:37.187Z,97983.75
2022-09-12T05:07:05.878Z,97980.13
2022-09-12T05:09:33.173Z,97988.75
2022-09-12T05:12:05.314Z,97990.09
2022-09-12T05:14:35.085Z,97994.34
2022-09-12T05:17:06.001Z,97995.44
2022-09-12T05:19:33.570Z,97992.72
2022-09-12T05:22:00.922Z,97999.69
2022-09-12T05:24:28.417Z,98002.47
2022-09-12T05:26:55.784Z,98007.47
2022-09-12T05:29:23.050Z,98009.28
2022-09-12T05:31:52.316Z,98013.47
2022-09-12T05:34:21.167Z,98015.72
2022-09-12T05:36:49.426Z,98015.75
2022-09-12T05:39:17.010Z,98021.97
2022-09-12T05:41:44.508Z,98017.72
2022-09-12T05:44:14.352Z,98019.13
2022-09-12T05:46:45.218Z,98024.91
2022-09-12T05:49:13.872Z,98022.69
2022-09-12T05:51:45.942Z,98021.91
2022-09-12T05:54:18.057Z,98019.38
2022-09-12T05:56:46.583Z,98026.25
2022-09-12T05:59:20.878Z,98017.25
2022-09-12T06:01:49.233Z,98019.97
2022-09-12T06:04:17.292Z,98017.09
2022-09-12T06:06:46.699Z,98017.31
2022-09-12T06:09:16.898Z,98015.00
2022-09-12T06:11:46.038Z,98015.25
2022-09-12T06:14:17.046Z,98015.97
2022-09-12T06:16:44.663Z,98011.31
2022-09-12T06:19:19.578Z,98015.13
2022-09-12T06:21:49.555Z,98016.44
2022-09-12T06:24:18.764Z,98028.69
2022-09-12T06:26:47.889Z,98023.44
2022-09-12T06:29:15.934Z,98030.19
2022-09-12T06:31:44.037Z,98030.09
2022-09-12T06:34:15.571Z,98031.13
2022-09-12T06:36:47.006Z,98030.72
2022-09-12T06:39:21.012Z,98038.16
2022-09-12T06:41:51.349Z,98039.16
2022-09-12T06:44:22.844Z,98048.09
2022-09-12T06:46:50.600Z,98032.09
2022-09-12T06:49:17.940Z,98040.13
2022-09-12T06:51:45.313Z,98045.00
2022-09-12T06:54:15.523Z,98044.13
2022-09-12T06:56:43.136Z,98040.41
2022-09-12T06:59:10.485Z,98046.78
2022-09-12T07:01:38.336Z,98035.44
2022-09-12T07:04:05.921Z,98035.84
2022-09-12T07:06:42.497Z,98029.16
2022-09-12T07:09:16.417Z,98037.22
2022-09-12T07:11:45.904Z,98036.56
2022-09-12T07:14:14.790Z,98036.09
2022-09-12T07:16:43.117Z,98031.88
2022-09-12T07:19:11.139Z,98037.22
2022-09-12T07:21:41.789Z,98045.63
2022-09-12T07:24:10.955Z,98056.28
2022-09-12T07:26:40.719Z,98052.63
2022-09-12T07:32:04.496Z,98046.31
2022-09-12T07:34:32.692Z,98063.19
2022-09-12T07:36:59.946Z,98071.00
2022-09-12T07:39:27.242Z,98066.19
2022-09-12T07:41:54.994Z,98063.19
2022-09-12T07:44:22.930Z,98069.16
2022-09-12T07:46:50.809Z,98065.75
2022-09-12T07:49:18.163Z,98068.94
2022-09-12T07:51:45.775Z,98064.41
2022-09-12T07:54:12.978Z,98069.38
2022-09-12T07:56:40.945Z,98069.19
2022-09-12T07:59:08.909Z,98072.81
2022-09-12T08:01:36.521Z,98075.47
2022-09-12T08:04:05.333Z,98078.13
2022-09-12T08:06:36.050Z,98073.66
2022-09-12T08:09:05.952Z,98076.09
2022-09-12T08:11:33.899Z,98081.78
2022-09-12T08:14:03.145Z,98086.66
2022-09-12T08:16:32.518Z,98094.09
2022-09-12T08:19:02.584Z,98094.88
2022-09-12T08:21:32.525Z,98091.69
2022-09-12T08:24:03.826Z,98097.72
2022-09-12T08:26:34.622Z,98083.44
2022-09-12T08:29:02.582Z,98089.66
2022-09-12T08:31:32.018Z,98075.91
2022-09-12T08:34:00.646Z,98077.97
2022-09-12T08:36:29.725Z,98078.66
2022-09-12T08:39:04.682Z,98078.03
2022-09-12T08:41:40.827Z,98072.06
2022-09-12T08:44:20.230Z,98074.47
2022-09-12T08:47:24.106Z,98073.81
2022-09-12T08:50:04.523Z,98083.78
2022-09-12T08:52:52.028Z,98084.22
2022-09-12T08:55:43.555Z,98091.38
2022-09-12T08:58:20.988Z,98088.78
2022-09-12T09:01:20.874Z,98083.53
2022-09-12T09:04:31.837Z,98069.34
2022-09-12T09:07:48.788Z,98072.63
2022-09-12T09:10:35.604Z,98062.38
2022-09-12T09:13:45.748Z,98072.25
2022-09-12T09:16:36.123Z,98079.75
2022-09-12T09:19:12.900Z,98075.16
2022-09-12T09:21:58.829Z,98079.78
2022-09-12T09:24:40.903Z,98081.31
2022-09-12T09:27:41.689Z,98077.00
2022-09-12T09:30:19.941Z,98079.72
2022-09-12T09:32:59.871Z,98077.00
2022-09-12T09:35:44.931Z,98083.78
2022-09-12T09:38:50.414Z,98077.00
2022-09-12T09:41:49.778Z,98090.16
2022-09-12T09:44:18.074Z,98073.16
2022-09-12T09:46:45.356Z,98056.09
2022-09-12T09:49:17.059Z,98068.06
2022-09-12T09:51:44.946Z,98073.31
2022-09-12T09:54:28.235Z,98073.00
2022-09-12T09:56:56.636Z,98066.38
2022-09-12T09:59:31.314Z,98050.06
2022-09-12T10:02:03.874Z,98060.16
2022-09-12T10:04:40.684Z,98065.44
2022-09-12T10:07:19.927Z,98075.47
2022-09-12T10:10:14.375Z,98067.63
2022-09-12T10:12:42.914Z,98080.56
2022-09-12T10:15:36.679Z,98082.69
2022-09-12T10:18:04.534Z,98073.97
2022-09-12T10:20:45.184Z,98077.31
2022-09-12T10:23:41.080Z,98064.56
2022-09-12T10:26:14.713Z,98073.69
2022-09-12T10:28:54.954Z,98066.38
2022-09-12T10:31:35.346Z,98058.75
2022-09-12T10:34:02.830Z,98070.16
2022-09-12T10:36:40.569Z,98051.59
2022-09-12T10:39:19.370Z,98050.13
2022-09-12T10:41:47.411Z,98048.19
2022-09-12T10:44:26.163Z,98043.78
2022-09-12T10:46:54.550Z,98050.91
2022-09-12T10:49:31.557Z,98008.56
2022-09-12T10:52:24.516Z,97980.41
2022-09-12T10:54:52.907Z,97966.44
2022-09-12T10:58:22.032Z,97995.00
2022-09-12T11:01:02.911Z,98004.41
2022-09-12T11:04:18.746Z,97984.63
2022-09-12T11:07:27.160Z,97985.06
2022-09-12T11:10:54.809Z,97993.25
2022-09-12T11:14:00.503Z,98001.56
2022-09-12T11:16:33.585Z,97977.53
2022-09-12T11:19:11.255Z,97970.50
2022-09-12T11:21:45.209Z,97966.34
2022-09-12T11:24:40.424Z,97971.47
2022-09-12T11:27:22.064Z,97974.53
2022-09-12T11:30:15.049Z,97956.97
2022-09-12T11:33:06.579Z,97950.19
2022-09-12T11:35:49.751Z,97948.75
2022-09-12T11:38:47.694Z,97958.31
2022-09-12T11:41:36.879Z,97949.16
2022-09-12T11:44:26.608Z,97952.34
2022-09-12T11:46:54.142Z,97969.75
2022-09-12T11:49:51.048Z,97978.94
2022-09-12T11:52:27.053Z,97995.00
2022-09-12T11:55:22.935Z,97981.81
2022-09-12T11:58:00.078Z,97986.50
2022-09-12T12:00:47.169Z,97994.47
2022-09-12T12:03:42.935Z,98006.84
2022-09-12T12:06:30.316Z,97984.84
2022-09-12T12:08:58.576Z,97982.22
2022-09-12T12:11:41.990Z,97970.25
2022-09-12T12:14:30.990Z,97961.91
2022-09-12T12:16:58.686Z,97966.00
2022-09-12T12:19:36.243Z,97964.94
2022-09-12T12:22:29.655Z,97983.81
2022-09-12T12:25:13.202Z,97979.47
2022-09-12T12:27:55.175Z,97973.53
2022-09-12T12:30:31.460Z,97972.22
2022-09-12T12:33:13.273Z,97972.25
2022-09-12T12:36:01.732Z,97968.91
2022-09-12T12:38:39.205Z,97966.63
2022-09-12T12:41:18.627Z,97967.03
2022-09-12T12:43:51.677Z,97975.22
2022-09-12T12:46:39.231Z,97969.97
2022-09-12T12:49:28.561Z,97966.06
2022-09-12T12:52:01.665Z,97971.75
2022-09-12T12:54:52.849Z,97970.13
2022-09-12T12:57:24.928Z,97973.84
2022-09-12T13:00:20.713Z,97977.63
2022-09-12T13:03:28.952Z,97959.63
2022-09-12T13:06:03.372Z,97966.06
2022-09-12T13:08:34.862Z,97969.19
2022-09-12T13:11:27.071Z,97960.50
2022-09-12T13:14:04.486Z,97950.25
2022-09-12T13:16:55.982Z,97943.69
2022-09-12T13:19:36.321Z,97933.69
2022-09-12T13:22:10.206Z,97931.72
2022-09-12T13:24:49.252Z,97930.81
2022-09-12T13:27:25.761Z,97934.56
2022-09-12T13:30:15.233Z,97931.53
2022-09-12T13:32:44.030Z,97945.47
2022-09-12T13:35:24.198Z,97935.88
2022-09-12T13:38:29.614Z,97940.31
2022-09-12T13:41:34.678Z,97939.53
2022-09-12T13:44:03.967Z,97939.50
2022-09-12T13:46:34.681Z,97931.84
2022-09-12T13:49:16.670Z,97936.50
2022-09-12T13:51:44.261Z,97917.41
2022-09-12T13:54:22.640Z,97921.66
2022-09-12T13:56:51.915Z,97920.81
2022-09-12T13:59:19.178Z,97929.28
2022-09-12T14:01:48.584Z,97926.56
2022-09-12T14:04:44.266Z,97932.81
2022-09-12T14:07:22.268Z,97919.72
2022-09-12T14:09:59.791Z,97925.81
2022-09-12T14:12:43.614Z,97924.34
2022-09-12T14:15:25.682Z,97920.19
2022-09-12T14:18:01.159Z,97917.56
2022-09-12T14:20:32.586Z,97910.16
2022-09-12T14:23:28.343Z,97917.94
2022-09-12T14:26:00.175Z,97920.91
2022-09-12T14:28:30.329Z,97897.63
2022-09-12T14:31:01.698Z,97891.75
2022-09-12T14:33:33.783Z,97899.00
2022-09-12T14:36:32.246Z,97902.22
2022-09-12T14:39:07.368Z,97905.00
2022-09-12T14:41:40.992Z,97896.44
2022-09-12T14:44:17.436Z,97906.78
2022-09-12T14:46:45.811Z,97901.72
2022-09-12T14:49:35.753Z,97905.22
2022-09-12T14:52:23.365Z,97910.75
2022-09-12T14:55:17.314Z,97908.88
2022-09-12T14:57:45.357Z,97913.09
2022-09-12T15:00:12.497Z,97915.38
2022-09-12T15:02:42.348Z,97913.31
2022-09-12T15:05:12.480Z,97916.84
2022-09-12T15:07:51.147Z,97914.03
2022-09-12T15:10:31.146Z,97921.25
2022-09-12T15:13:14.549Z,97918.25
2022-09-12T15:15:46.547Z,97912.91
2022-09-12T15:18:14.940Z,97920.97
2022-09-12T15:20:45.668Z,97909.59
2022-09-12T15:23:52.058Z,97914.66
2022-09-12T15:26:27.548Z,97921.69
2022-09-12T15:28:55.025Z,97927.06
2022-09-12T15:31:31.272Z,97923.78
2022-09-12T15:34:02.270Z,97922.53
2022-09-12T15:36:29.894Z,97926.25
2022-09-12T15:38:57.682Z,97922.97
2022-09-12T15:41:39.419Z,97931.63
2022-09-12T15:44:12.333Z,97929.97
2022-09-12T15:46:40.548Z,97938.00
2022-09-12T15:49:08.154Z,97932.59
2022-09-12T15:51:35.287Z,97936.06
2022-09-12T15:54:04.851Z,97938.66
2022-09-12T15:56:33.022Z,97946.75
2022-09-12T15:59:00.446Z,97941.13
2022-09-12T16:01:29.182Z,97946.44
2022-09-12T16:03:57.588Z,97950.84
2022-09-12T16:06:25.013Z,97940.06
2022-09-12T16:08:52.209Z,97950.06
2022-09-12T16:11:25.991Z,97942.97
2022-09-12T16:13:55.831Z,97945.06
2022-09-12T16:16:23.500Z,97939.19
2022-09-12T16:18:52.279Z,97945.88
2022-09-12T16:21:19.597Z,97945.88
2022-09-12T16:23:48.518Z,97948.75
2022-09-12T16:26:16.598Z,97939.22
2022-09-12T16:28:44.307Z,97938.66
2022-09-12T16:31:14.277Z,97942.16
2022-09-12T16:33:41.907Z,97945.44
2022-09-12T16:36:13.632Z,97944.03
2022-09-12T16:38:47.656Z,97945.66
2022-09-12T16:41:17.024Z,97945.59
2022-09-12T16:43:45.627Z,97952.34
2022-09-12T16:46:20.729Z,97949.06
2022-09-12T16:48:54.513Z,97950.66
2022-09-12T16:51:37.270Z,97949.28
2022-09-12T16:54:05.249Z,97956.28
2022-09-12T16:56:32.493Z,97956.69
2022-09-12T16:58:59.718Z,97952.88
2022-09-12T17:01:27.580Z,97950.09
2022-09-12T17:03:57.560Z,97951.41
2022-09-12T17:06:27.475Z,97947.13
2022-09-12T17:09:04.393Z,97944.66
2022-09-12T17:11:38.312Z,97947.16
2022-09-12T17:14:08.706Z,97948.66
2022-09-12T17:16:43.461Z,97955.44
2022-09-12T17:19:26.813Z,97952.81
2022-09-12T17:21:54.859Z,97955.81
2022-09-12T17:24:23.984Z,97963.56
2022-09-12T17:26:52.447Z,97955.47
2022-09-12T17:29:20.365Z,97956.31
2022-09-12T17:31:49.331Z,97958.56
2022-09-12T17:34:17.912Z,97969.66
2022-09-12T17:36:48.375Z,97968.66
2022-09-12T17:39:16.286Z,97976.91
2022-09-12T17:41:46.300Z,97960.81
2022-09-12T17:44:15.383Z,97970.09
2022-09-12T17:46:44.031Z,97978.13
2022-09-12T17:49:14.925Z,97974.16
2022-09-12T17:51:44.027Z,97981.25
2022-09-12T17:54:16.305Z,97984.69
2022-09-12T17:56:46.857Z,97981.84
2022-09-12T17:59:19.203Z,97980.84
2022-09-12T18:02:06.118Z,97979.34
2022-09-12T18:04:34.285Z,97982.28
2022-09-12T18:07:01.526Z,97980.63
2022-09-12T18:09:29.305Z,97988.84
2022-09-12T18:11:57.407Z,97990.53
2022-09-12T18:14:27.889Z,97994.84
2022-09-12T18:16:57.287Z,97985.69
2022-09-12T18:19:25.133Z,97993.13
2022-09-12T18:21:52.491Z,97995.72
2022-09-12T18:24:20.222Z,97991.22
2022-09-12T18:26:48.284Z,97994.78
2022-09-12T18:29:17.049Z,97997.22
2022-09-12T18:31:45.391Z,98002.81
2022-09-12T18:34:14.188Z,97998.97
2022-09-12T18:36:46.928Z,98001.41
2022-09-12T18:39:15.527Z,98001.03
2022-09-12T18:41:43.884Z,98003.16
2022-09-12T18:44:12.730Z,98007.41
2022-09-12T18:46:40.844Z,98004.84
2022-09-12T18:49:09.802Z,98010.72
2022-09-12T18:51:40.160Z,98001.31
2022-09-12T18:54:13.777Z,98002.03
2022-09-12T18:56:43.713Z,98003.84
2022-09-12T18:59:14.187Z,97996.19
2022-09-12T19:01:43.162Z,97995.84
2022-09-12T19:04:13.869Z,97996.59
2022-09-12T19:06:45.753Z,98002.84
2022-09-12T19:09:18.703Z,97999.81
2022-09-12T19:11:50.455Z,97996.50
2022-09-12T19:14:24.076Z,98003.06
2022-09-12T19:16:52.509Z,97999.06
2022-09-12T19:19:20.625Z,98004.81
2022-09-12T19:21:47.832Z,97999.13
2022-09-12T19:24:16.665Z,97999.03
2022-09-12T19:26:44.885Z,97997.53
2022-09-12T19:29:13.960Z,97997.13
2022-09-12T19:31:41.439Z,98000.66
2022-09-12T19:34:10.720Z,97993.72
2022-09-12T19:36:47.426Z,97993.34
2022-09-12T19:39:19.845Z,97988.34
2022-09-12T19:41:48.331Z,97990.59
2022-09-12T19:44:16.068Z,97992.16
2022-09-12T19:46:43.572Z,97994.53
2022-09-12T19:49:12.988Z,97990.53
2022-09-12T19:51:40.928Z,97993.56
2022-09-12T19:54:08.266Z,97993.19
2022-09-12T19:56:35.674Z,97990.72
2022-09-12T19:59:03.244Z,97991.13
2022-09-12T20:01:30.555Z,97986.84
2022-09-12T20:03:59.197Z,97980.31
2022-09-12T20:06:27.521Z,97981.16
2022-09-12T20:08:55.980Z,97975.75
2022-09-12T20:11:24.552Z,97976.22
2022-09-12T20:13:52.608Z,97973.16
2022-09-12T20:16:23.280Z,97967.34
2022-09-12T20:19:00.656Z,97961.81
2022-09-12T20:21:31.869Z,97969.88
2022-09-12T20:24:11.015Z,97970.72
2022-09-12T20:26:39.905Z,97965.19
2022-09-12T20:29:08.250Z,97968.94
2022-09-12T20:31:38.470Z,97962.03
2022-09-12T20:34:07.438Z,97963.97
2022-09-12T20:36:34.788Z,97964.38
2022-09-12T20:39:03.109Z,97956.78
2022-09-12T20:41:34.436Z,97960.53
2022-09-12T20:44:02.048Z,97964.25
2022-09-12T20:46:29.342Z,97964.09
2022-09-12T20:48:58.565Z,97967.72
2022-09-12T20:51:26.803Z,97969.25
2022-09-12T20:54:00.423Z,97973.28
2022-09-12T20:56:29.489Z,97977.03
2022-09-12T20:58:57.931Z,97971.88
2022-09-12T21:01:27.724Z,97967.00
2022-09-12T21:03:55.245Z,97967.16
2022-09-12T21:06:22.744Z,97963.94
2022-09-12T21:08:50.995Z,97965.91
2022-09-12T21:11:19.783Z,97966.03
2022-09-12T21:13:47.185Z,97956.63
2022-09-12T21:16:18.359Z,97962.03
2022-09-12T21:18:46.883Z,97960.50
2022-09-12T21:21:16.362Z,97962.16
2022-09-12T21:23:43.669Z,97959.50
2022-09-12T21:26:11.069Z,97958.81
2022-09-12T21:28:38.205Z,97964.78
2022-09-12T21:31:05.887Z,97963.81
2022-09-12T21:33:33.413Z,97958.28
2022-09-12T21:36:06.429Z,97970.31
2022-09-12T21:38:34.439Z,97960.63
2022-09-12T21:41:14.801Z,97963.81
2022-09-12T21:43:43.361Z,97954.25
2022-09-12T21:46:12.037Z,97952.06
2022-09-12T21:48:39.437Z,97947.34
2022-09-12T21:51:07.192Z,97955.78
2022-09-12T21:53:34.691Z,97954.97
2022-09-12T21:56:08.052Z,97957.03
2022-09-12T21:58:37.437Z,97949.72
2022-09-12T22:01:06.137Z,97957.31
2022-09-12T22:03:33.493Z,97951.63
2022-09-12T22:06:03.854Z,97944.03
2022-09-12T22:08:33.628Z,97946.34
2022-09-12T22:11:05.699Z,97942.50
2022-09-12T22:13:33.799Z,97939.16
2022-09-12T22:16:03.119Z,97936.94
2022-09-12T22:18:34.040Z,97943.88
2022-09-12T22:21:07.312Z,97942.22
2022-09-12T22:23:53.717Z,97948.56
2022-09-12T22:26:21.270Z,97944.69
2022-09-12T22:28:50.142Z,97938.75
2022-09-12T22:31:18.045Z,97931.94
2022-09-12T22:33:45.821Z,97938.31
2022-09-12T22:36:13.822Z,97930.84
2022-09-12T22:38:41.176Z,97936.34
2022-09-12T22:41:11.572Z,97926.94
2022-09-12T22:43:39.407Z,97935.94
2022-09-12T22:46:09.589Z,97930.94
2022-09-12T22:48:38.245Z,97941.03
2022-09-12T22:51:06.342Z,97934.91
2022-09-12T22:53:35.542Z,97939.59
2022-09-12T22:56:05.191Z,97941.53
2022-09-12T22:58:35.666Z,97946.09
2022-09-12T23:01:06.672Z,97938.22
2022-09-12T23:03:35.449Z,97943.47
2022-09-12T23:06:04.500Z,97941.09
2022-09-12T23:08:34.698Z,97933.47
2022-09-12T23:11:20.918Z,97927.81
2022-09-12T23:13:51.206Z,97926.00
2022-09-12T23:16:26.139Z,97919.31
2022-09-12T23:18:53.583Z,97916.13
2022-09-12T23:21:22.092Z,97925.94
2022-09-12T23:23:50.684Z,97911.25
2022-09-12T23:26:22.225Z,97920.38
2022-09-12T23:28:56.663Z,97918.88
2022-09-12T23:31:30.332Z,97916.63
2022-09-12T23:34:02.101Z,97916.06
2022-09-12T23:36:29.891Z,97923.09
2022-09-12T23:38:57.586Z,97923.34
2022-09-12T23:41:25.402Z,97920.88
2022-09-12T23:43:52.883Z,97922.94
2022-09-12T23:46:22.033Z,97914.47
2022-09-12T23:48:49.870Z,97920.00
2022-09-12T23:51:17.619Z,97916.66
2022-09-12T23:53:44.800Z,97910.84
2022-09-12T23:56:12.061Z,97902.66
2022-09-12T23:58:39.467Z,97906.22
